Time;durP1;ratioP1;P1;durP2;ratioP2;P2;SDS_P1;SDS_P2;PMS_P1;PMS_P2;Temp;Humidity;BMP_temperature;BMP_pressure;BME280_temperature;BME280_humidity;BME280_pressure;Samples;Min_cycle;Max_cycle;Signal;HPM_P1;HPM_P2
2022/01/19 00:00:58;;;;;;;114.15;35.97;;;;;;;;;;4796838;29;20073;-90
2022/01/19 00:03:24;;;;;;;117.78;38.58;;;7.80;99.90;;;;;;4780585;29;20078;-86
2022/01/19 00:05:50;;;;;;;117.18;36.53;;;7.70;99.90;;;;;;4795603;29;20138;-86
2022/01/19 00:08:19;;;;;;;130.40;35.92;;;8.10;99.90;;;;;;4778746;29;20516;-91
2022/01/19 00:10:46;;;;;;;112.85;36.30;;;9.30;99.90;;;;;;4780233;29;21671;-86
2022/01/19 00:13:12;;;;;;;116.53;38.53;;;7.40;99.90;;;;;;4794271;29;20047;-89
2022/01/19 00:15:38;;;;;;;109.35;36.63;;;7.80;99.90;;;;;;4794444;29;20043;-86
2022/01/19 00:18:04;;;;;;;92.03;34.78;;;7.60;99.90;;;;;;4778058;29;20128;-92
2022/01/19 00:20:32;;;;;;;90.70;34.60;;;9.80;99.90;;;;;;4799831;29;20058;-87
2022/01/19 00:22:58;;;;;;;;;;;10.60;99.90;;;;;;4803405;29;20046;-87
2022/01/19 00:25:24;;;;;;;98.85;34.92;;;9.70;99.90;;;;;;4791904;29;20395;-89
2022/01/19 00:27:50;;;;;;;108.95;35.40;;;7.70;99.90;;;;;;4798488;29;20062;-91
2022/01/19 00:30:16;;;;;;;103.43;36.50;;;7.20;99.90;;;;;;4798354;29;20061;-87
2022/01/19 00:32:42;;;;;;;102.65;33.83;;;9.80;99.90;;;;;;4800286;29;20055;-91
2022/01/19 00:35:09;;;;;;;83.30;32.13;;;;;;;;;;4798191;29;20397;-87
2022/01/19 00:37:35;;;;;;;90.30;33.27;;;7.00;99.90;;;;;;4800252;29;20054;-86
2022/01/19 00:40:01;;;;;;;99.05;35.33;;;6.40;99.90;;;;;;4782742;29;20307;-93
2022/01/19 00:42:26;;;;;;;91.30;33.65;;;9.80;99.90;;;;;;4798208;29;20058;-87
2022/01/19 00:44:53;;;;;;;108.78;37.75;;;;;;;;;;4782242;29;20046;-88
2022/01/19 00:47:19;;;;;;;98.30;34.25;;;7.60;99.90;;;;;;4781957;29;20133;-88
2022/01/19 00:49:45;;;;;;;82.60;33.33;;;7.20;99.90;;;;;;4783425;29;21296;-86
2022/01/19 00:52:12;;;;;;;102.50;34.40;;;7.10;99.90;;;;;;4798447;29;20393;-87
2022/01/19 00:54:39;;;;;;;90.93;35.35;;;7.60;99.90;;;;;;4782397;29;20327;-86
2022/01/19 00:57:05;;;;;;;92.83;36.03;;;8.40;99.90;;;;;;4797488;29;20086;-93
2022/01/19 00:59:31;;;;;;;94.10;35.65;;;9.90;99.90;;;;;;4782647;29;20376;-86
2022/01/19 01:01:57;;;;;;;105.93;36.78;;;8.30;99.90;;;;;;4797496;29;20058;-87
2022/01/19 01:04:23;;;;;;;118.97;37.65;;;7.10;99.90;;;;;;4805868;29;20078;-87
2022/01/19 01:06:49;;;;;;;118.22;40.80;;;;;;;;;;4806593;29;20113;-88
2022/01/19 01:09:15;;;;;;;124.57;40.28;;;;;;;;;;4800629;29;20058;-91
2022/01/19 01:11:58;;;;;;;129.48;39.45;;;7.30;99.90;;;;;;4797908;29;20123;-88
2022/01/19 01:18:17;;;;;;;113.53;38.75;;;7.90;99.90;;;;;;4797354;29;20834;-87
2022/01/19 01:20:01;;;;;;;127.20;37.80;;;7.60;99.90;;;;;;4782352;29;20050;-87
2022/01/19 01:22:26;;;;;;;;;;;8.60;99.90;;;;;;4802843;29;20405;-87
2022/01/19 01:24:52;;;;;;;121.97;39.97;;;9.20;99.90;;;;;;4806101;29;20036;-90
2022/01/19 01:27:18;;;;;;;120.70;39.03;;;6.90;99.90;;;;;;4797158;29;20055;-86
2022/01/19 01:29:44;;;;;;;121.18;38.58;;;6.50;99.90;;;;;;4782416;29;20120;-86
2022/01/19 01:32:09;;;;;;;129.75;40.28;;;8.00;99.90;;;;;;4796968;29;20043;-86
2022/01/19 01:34:38;;;;;;;126.15;40.83;;;7.70;99.90;;;;;;4783188;29;20058;-86
2022/01/19 01:37:06;;;;;;;139.00;40.25;;;7.30;99.90;;;;;;4798420;29;20047;-85
2022/01/19 01:39:32;;;;;;;135.60;41.22;;;7.10;99.90;;;;;;4800514;29;20046;-87
2022/01/19 01:41:57;;;;;;;150.00;40.67;;;7.30;99.90;;;;;;4796922;29;20066;-86
2022/01/19 01:44:23;;;;;;;123.72;38.15;;;6.70;99.90;;;;;;4779589;29;20365;-87
2022/01/19 01:46:54;;;;;;;122.70;37.70;;;7.70;99.90;;;;;;4798970;29;20051;-89
2022/01/19 01:49:43;;;;;;;115.15;38.30;;;7.50;99.90;;;;;;4796009;29;20469;-85
2022/01/19 01:54:54;;;;;;;111.05;39.00;;;7.30;99.90;;;;;;4797310;29;20057;-85
2022/01/19 01:57:20;;;;;;;123.40;38.90;;;7.60;99.90;;;;;;4795829;29;20421;-86
2022/01/19 01:59:46;;;;;;;109.20;37.22;;;7.50;99.90;;;;;;4782180;29;20047;-85
2022/01/19 02:02:12;;;;;;;118.82;37.30;;;7.20;99.90;;;;;;4797907;29;20371;-87
2022/01/19 02:04:41;;;;;;;111.80;37.78;;;7.40;99.90;;;;;;4797424;29;20054;-85
2022/01/19 02:10:00;;;;;;;103.97;35.88;;;7.40;99.90;;;;;;4796289;29;20552;-91
2022/01/19 02:25:51;;;;;;;113.95;37.78;;;9.80;99.90;;;;;;4782993;29;20058;-87
2022/01/19 02:41:42;;;;;;;127.53;39.63;;;;;;;;;;4788284;29;20066;-87
2022/01/19 02:44:14;;;;;;;119.93;40.30;;;7.30;99.90;;;;;;4801164;29;20054;-88
2022/01/19 02:49:47;;;;;;;132.07;41.38;;;7.30;99.90;;;;;;4761151;30;20064;-88
2022/01/19 02:52:13;;;;;;;118.07;40.33;;;;;;;;;;4759443;30;20170;-87
2022/01/19 02:54:39;;;;;;;103.05;37.75;;;7.30;99.90;;;;;;4766246;30;20135;-88
2022/01/19 02:57:09;;;;;;;121.05;40.03;;;6.40;99.90;;;;;;4782861;29;20473;-89
2022/01/19 03:10:14;;;;;;;135.48;42.35;;;7.30;99.90;;;;;;4796977;29;20054;-89
2022/01/19 03:12:40;;;;;;;128.82;43.75;;;7.10;99.90;;;;;;4794828;29;20313;-86
2022/01/19 03:15:08;;;;;;;160.82;45.00;;;7.30;99.90;;;;;;4795841;29;20504;-87
2022/01/19 03:17:35;;;;;;;132.57;42.22;;;6.90;99.90;;;;;;4778040;29;20138;-89
2022/01/19 03:20:00;;;;;;;135.73;44.60;;;9.40;99.90;;;;;;4780744;29;20457;-87
2022/01/19 03:22:34;;;;;;;136.55;43.50;;;7.20;99.90;;;;;;4798288;29;20050;-86
2022/01/19 03:25:00;;;;;;;124.70;44.75;;;7.40;99.90;;;;;;4799419;29;20054;-86
2022/01/19 03:27:26;;;;;;;113.65;41.92;;;6.30;99.90;;;;;;4794445;29;20469;-86
2022/01/19 03:29:51;;;;;;;112.93;41.58;;;7.40;99.90;;;;;;4795603;29;20051;-87
2022/01/19 03:32:17;;;;;;;111.25;40.63;;;7.20;99.90;;;;;;4794623;29;20058;-89
2022/01/19 03:34:43;;;;;;;105.93;40.38;;;6.70;99.90;;;;;;4795753;29;20138;-86
2022/01/19 03:37:11;;;;;;;116.32;40.80;;;;;;;;;;4779382;29;20054;-87
2022/01/19 03:39:37;;;;;;;120.70;41.70;;;6.60;99.90;;;;;;4798318;29;20103;-87
2022/01/19 03:42:03;;;;;;;132.35;43.53;;;6.90;99.90;;;;;;4795114;29;20050;-90
2022/01/19 03:44:29;;;;;;;109.00;41.75;;;;;;;;;;4779782;29;20154;-87
2022/01/19 03:47:00;;;;;;;119.40;42.50;;;7.40;99.90;;;;;;4779015;29;20074;-87
2022/01/19 03:49:28;;;;;;;100.47;43.13;;;6.50;99.90;;;;;;4794466;29;20051;-87
2022/01/19 03:51:59;;;;;;;102.25;41.47;;;6.90;99.90;;;;;;4796909;29;20059;-86
2022/01/19 03:54:26;;;;;;;112.93;44.05;;;9.50;99.90;;;;;;4797138;29;21612;-88
2022/01/19 03:56:52;;;;;;;95.35;42.10;;;6.10;99.90;;;;;;4763536;29;20146;-88
2022/01/19 03:59:18;;;;;;;109.20;45.63;;;6.90;99.90;;;;;;4793725;29;20046;-87
2022/01/19 04:01:44;;;;;;;115.30;44.47;;;9.40;99.90;;;;;;4799162;29;20446;-87
2022/01/19 04:04:28;;;;;;;112.55;45.50;;;6.50;99.90;;;;;;4800940;29;20082;-86
2022/01/19 04:07:08;;;;;;;105.75;43.85;;;6.50;99.90;;;;;;4799060;29;20493;-87
2022/01/19 04:09:43;;;;;;;114.28;47.40;;;6.70;99.90;;;;;;4799213;29;20051;-87
2022/01/19 04:12:14;;;;;;;108.35;44.72;;;7.10;99.90;;;;;;4783904;29;20529;-89
2022/01/19 04:14:40;;;;;;;122.22;44.50;;;7.60;99.90;;;;;;4800314;29;20451;-86
2022/01/19 04:17:08;;;;;;;119.82;47.15;;;6.70;99.90;;;;;;4782809;29;20059;-86
2022/01/19 04:22:09;;;;;;;143.95;50.55;;;5.90;99.90;;;;;;4790009;29;20054;-86
2022/01/19 04:24:37;;;;;;;138.48;49.20;;;6.90;99.90;;;;;;4803735;29;20054;-87
2022/01/19 04:30:00;;;;;;;143.50;51.10;;;6.50;99.90;;;;;;4798253;29;20055;-90
2022/01/19 04:32:38;;;;;;;128.50;47.72;;;6.80;99.90;;;;;;4798942;29;20157;-86
2022/01/19 04:35:08;;;;;;;120.32;46.65;;;6.50;99.90;;;;;;4800867;29;20161;-87
2022/01/19 04:54:32;;;;;;;118.88;45.50;;;8.00;99.90;;;;;;4802699;29;20146;-88
2022/01/19 05:05:17;;;;;;;121.75;47.90;;;5.50;99.90;;;;;;4800805;29;20493;-87
2022/01/19 05:07:55;;;;;;;123.82;48.42;;;;;;;;;;4804941;29;20063;-88
2022/01/19 05:15:53;;;;;;;127.20;50.95;;;6.60;99.90;;;;;;4789027;29;20410;-87
2022/01/19 05:18:19;;;;;;;115.90;49.47;;;7.30;99.90;;;;;;4787648;29;20059;-87
2022/01/19 05:20:47;;;;;;;124.00;47.45;;;6.60;99.90;;;;;;4787999;29;20363;-85
2022/01/19 05:23:14;;;;;;;107.30;46.50;;;;;;;;;;4803853;29;20107;-91
2022/01/19 05:25:40;;;;;;;124.95;47.67;;;5.80;99.90;;;;;;4782542;29;20050;-85
2022/01/19 05:28:06;;;;;;;115.57;47.05;;;7.20;99.90;;;;;;4789811;29;20165;-86
2022/01/19 05:30:32;;;;;;;110.70;47.25;;;8.90;99.90;;;;;;4802202;29;20158;-84
2022/01/19 05:32:58;;;;;;;115.88;48.70;;;6.50;99.90;;;;;;4804252;29;20125;-85
2022/01/19 05:35:27;;;;;;;110.20;47.42;;;9.00;99.90;;;;;;4787431;29;20054;-85
2022/01/19 05:37:53;;;;;;;118.75;45.60;;;;;;;;;;4804021;29;20078;-85
2022/01/19 05:40:19;;;;;;;109.72;45.42;;;6.60;99.90;;;;;;4804241;29;20065;-84
2022/01/19 05:42:50;;;;;;;117.65;48.58;;;6.60;99.90;;;;;;4802730;29;20046;-86
2022/01/19 05:45:16;;;;;;;110.53;48.22;;;6.60;99.90;;;;;;4788445;29;20442;-86
2022/01/19 05:47:42;;;;;;;111.95;46.00;;;6.30;99.90;;;;;;4807658;29;20133;-84
2022/01/19 05:50:08;;;;;;;112.28;47.75;;;6.70;99.90;;;;;;4816523;29;20130;-85
2022/01/19 05:52:34;;;;;;;105.60;45.58;;;6.60;99.90;;;;;;4812004;29;20057;-86
2022/01/19 05:55:00;;;;;;;107.00;47.03;;;7.20;99.90;;;;;;4802945;29;20047;-85
2022/01/19 05:57:28;;;;;;;119.07;44.78;;;7.30;99.90;;;;;;4799774;29;20123;-86
2022/01/19 05:59:54;;;;;;;105.80;45.33;;;9.10;99.90;;;;;;4800866;29;20142;-85
2022/01/19 06:02:20;;;;;;;103.32;44.00;;;;;;;;;;4789405;29;20133;-85
2022/01/19 06:04:45;;;;;;;108.05;45.25;;;6.60;99.90;;;;;;4805305;29;20054;-85
2022/01/19 06:07:12;;;;;;;102.13;43.90;;;6.60;99.90;;;;;;4805245;29;20054;-85
2022/01/19 06:12:11;;;;;;;95.47;45.63;;;6.60;99.90;;;;;;4804662;29;20058;-85
2022/01/19 06:14:39;;;;;;;93.72;42.72;;;5.50;99.90;;;;;;4804970;29;20377;-85
2022/01/19 06:17:07;;;;;;;89.63;41.88;;;8.40;99.90;;;;;;4788900;29;20099;-85
2022/01/19 06:19:33;;;;;;;95.80;42.38;;;6.60;99.90;;;;;;4787851;29;20517;-85
2022/01/19 06:21:59;;;;;;;89.45;41.90;;;9.30;99.90;;;;;;4807674;29;20074;-87
2022/01/19 06:24:25;;;;;;;92.85;43.58;;;6.60;99.90;;;;;;4822227;29;20057;-86
2022/01/19 06:26:51;;;;;;;103.60;45.40;;;6.20;99.90;;;;;;4822284;29;20058;-85
2022/01/19 06:29:17;;;;;;;100.95;46.70;;;6.40;99.90;;;;;;4780661;29;20063;-86
2022/01/19 06:31:43;;;;;;;98.85;43.05;;;6.90;99.90;;;;;;4804697;29;20112;-86
2022/01/19 06:34:08;;;;;;;100.07;43.85;;;6.70;99.90;;;;;;4805186;29;20557;-86
2022/01/19 06:36:34;;;;;;;113.15;46.38;;;6.90;99.90;;;;;;4780168;29;20062;-86
2022/01/19 06:39:00;;;;;;;95.85;45.40;;;9.60;99.90;;;;;;4798659;29;20054;-85
2022/01/19 06:41:26;;;;;;;92.68;44.47;;;;;;;;;;4805203;29;20143;-86
2022/01/19 06:43:52;;;;;;;102.40;45.67;;;5.40;99.90;;;;;;4787685;29;20099;-86
2022/01/19 06:46:18;;;;;;;91.97;44.45;;;6.70;99.90;;;;;;4804599;29;20450;-85
2022/01/19 06:48:43;;;;;;;106.78;47.45;;;7.50;99.90;;;;;;4813072;29;20354;-85
2022/01/19 06:51:09;;;;;;;107.53;46.40;;;8.50;99.90;;;;;;4789882;29;20078;-85
2022/01/19 06:53:35;;;;;;;102.20;46.53;;;4.70;99.90;;;;;;4804218;29;20134;-86
2022/01/19 06:56:01;;;;;;;104.38;46.17;;;6.40;99.90;;;;;;4803301;29;20511;-87
2022/01/19 06:58:28;;;;;;;98.93;47.70;;;6.50;99.90;;;;;;4801743;29;20047;-86
2022/01/19 07:00:55;;;;;;;98.70;45.90;;;6.60;99.90;;;;;;4803005;29;20119;-87
2022/01/19 07:03:20;;;;;;;98.67;47.13;;;6.60;99.90;;;;;;4790463;29;20090;-85
2022/01/19 07:05:47;;;;;;;103.88;46.72;;;7.00;99.90;;;;;;4796247;29;20059;-84
2022/01/19 07:08:13;;;;;;;108.68;46.47;;;6.30;99.90;;;;;;4805390;29;20069;-85
2022/01/19 07:10:39;;;;;;;110.20;45.15;;;;;;;;;;4808922;29;20053;-86
2022/01/19 07:13:06;;;;;;;110.00;45.50;;;6.60;99.90;;;;;;4803277;29;20054;-85
2022/01/19 07:15:32;;;;;;;101.03;45.10;;;6.60;99.90;;;;;;4803022;29;20093;-85
2022/01/19 07:17:57;;;;;;;106.20;46.13;;;8.60;99.90;;;;;;4788050;29;20090;-85
2022/01/19 07:20:24;;;;;;;98.57;45.30;;;6.60;99.90;;;;;;4804565;29;20061;-85
2022/01/19 07:22:50;;;;;;;100.50;46.90;;;8.10;99.90;;;;;;4791291;29;20125;-86
2022/01/19 07:25:17;;;;;;;96.93;45.20;;;8.70;99.90;;;;;;4787131;29;20051;-86
2022/01/19 07:27:43;;;;;;;94.00;44.07;;;;;;;;;;4801978;29;20046;-85
2022/01/19 07:30:10;;;;;;;97.05;43.67;;;6.20;99.90;;;;;;4804199;29;20785;-85
2022/01/19 07:32:35;;;;;;;107.18;43.17;;;6.70;99.90;;;;;;4772716;29;20058;-85
2022/01/19 07:35:03;;;;;;;108.20;46.42;;;6.50;99.90;;;;;;4802626;29;20057;-85
2022/01/19 07:37:28;;;;;;;106.22;45.08;;;9.20;99.90;;;;;;4803650;29;20512;-86
2022/01/19 07:39:54;;;;;;;105.55;46.10;;;6.00;99.90;;;;;;4803513;29;20055;-85
2022/01/19 07:42:20;;;;;;;106.80;44.55;;;4.30;99.90;;;;;;4772316;29;20453;-85
2022/01/19 07:44:46;;;;;;;94.65;46.15;;;6.10;99.90;;;;;;4787063;29;20130;-86
2022/01/19 07:47:12;;;;;;;92.28;44.58;;;6.70;99.90;;;;;;4803825;29;20126;-85
2022/01/19 07:49:38;;;;;;;95.13;44.85;;;6.00;99.90;;;;;;4803334;29;20137;-85
2022/01/19 07:52:04;;;;;;;108.13;46.75;;;;;;;;;;4783274;30;20101;-85
2022/01/19 07:54:30;;;;;;;102.18;45.85;;;6.50;99.90;;;;;;4784771;30;20098;-86
2022/01/19 07:56:56;;;;;;;97.20;44.17;;;6.70;99.90;;;;;;4785222;30;20093;-86
2022/01/19 07:59:22;;;;;;;96.85;44.38;;;6.50;99.90;;;;;;4797170;29;20416;-90
2022/01/19 08:01:48;;;;;;;91.43;43.28;;;;;;;;;;4786744;29;20121;-84
2022/01/19 08:04:14;;;;;;;109.68;43.97;;;6.50;99.90;;;;;;4803398;29;20505;-85
2022/01/19 08:06:40;;;;;;;93.43;42.17;;;;;;;;;;4772312;29;20051;-85
2022/01/19 08:09:07;;;;;;;88.07;41.72;;;;;;;;;;4789923;29;20051;-85
2022/01/19 08:11:33;;;;;;;89.00;41.38;;;7.00;99.90;;;;;;4802972;29;20050;-85
2022/01/19 08:13:59;;;;;;;94.53;41.70;;;;;;;;;;4787732;29;20105;-86
2022/01/19 08:16:25;;;;;;;91.78;38.65;;;6.50;99.90;;;;;;4804004;29;20051;-85
2022/01/19 08:18:51;;;;;;;101.05;41.42;;;5.80;99.90;;;;;;4756908;29;20063;-84
2022/01/19 08:21:17;;;;;;;83.25;41.55;;;6.40;99.90;;;;;;4804564;29;20047;-86
2022/01/19 08:23:43;;;;;;;90.05;42.70;;;;;;;;;;4802846;29;20055;-85
2022/01/19 08:26:13;;;;;;;86.10;42.65;;;6.40;99.90;;;;;;4766795;30;20104;-85
2022/01/19 08:28:39;;;;;;;88.38;39.60;;;6.70;99.90;;;;;;4807643;29;20081;-85
2022/01/19 08:31:05;;;;;;;99.15;42.67;;;7.00;99.90;;;;;;4795593;29;20412;-85
2022/01/19 08:33:30;;;;;;;84.47;41.17;;;6.90;99.90;;;;;;4810249;29;20055;-84
2022/01/19 08:35:56;;;;;;;95.45;42.63;;;;;;;;;;4802733;29;20122;-86
2022/01/19 08:38:23;;;;;;;97.07;43.05;;;6.40;99.90;;;;;;4793988;29;20057;-86
2022/01/19 08:40:49;;;;;;;88.82;40.42;;;8.40;99.90;;;;;;4787859;29;20062;-85
2022/01/19 08:43:14;;;;;;;90.93;43.17;;;6.30;99.90;;;;;;4786919;29;20073;-85
2022/01/19 08:45:41;;;;;;;90.63;41.50;;;9.00;99.90;;;;;;4806011;29;20053;-85
2022/01/19 08:48:07;;;;;;;94.75;43.55;;;6.30;99.90;;;;;;4807804;29;20163;-84
2022/01/19 08:50:34;;;;;;;84.88;40.13;;;6.80;99.90;;;;;;4808231;29;20047;-85
2022/01/19 08:53:00;;;;;;;87.80;41.03;;;6.30;99.90;;;;;;4790003;29;20133;-86
2022/01/19 08:55:26;;;;;;;80.88;39.92;;;6.60;99.90;;;;;;4808086;29;20422;-87
2022/01/19 08:57:52;;;;;;;86.38;43.15;;;7.50;99.90;;;;;;4805996;29;20142;-85
2022/01/19 09:00:19;;;;;;;85.60;40.88;;;6.50;99.90;;;;;;4806816;29;20082;-85
2022/01/19 09:02:45;;;;;;;88.20;42.33;;;8.50;99.90;;;;;;4790044;29;20058;-86
2022/01/19 09:05:10;;;;;;;85.97;40.78;;;7.50;99.90;;;;;;4805817;29;20112;-86
2022/01/19 09:07:40;;;;;;;82.72;38.50;;;6.50;99.90;;;;;;4806245;29;20094;-86
2022/01/19 09:10:09;;;;;;;80.63;39.67;;;6.30;99.90;;;;;;4812480;29;20806;-85
2022/01/19 09:12:36;;;;;;;83.68;42.42;;;6.50;99.90;;;;;;4797158;29;20399;-86
2022/01/19 09:15:05;;;;;;;86.13;40.63;;;6.40;99.90;;;;;;4794830;29;20492;-86
2022/01/19 09:17:31;;;;;;;83.07;41.83;;;5.20;99.90;;;;;;4809766;29;20042;-85
2022/01/19 09:19:57;;;;;;;91.60;42.67;;;7.50;99.90;;;;;;4807850;29;20045;-86
2022/01/19 09:22:23;;;;;;;93.68;44.13;;;8.70;99.90;;;;;;4788082;30;20233;-85
2022/01/19 09:24:48;;;;;;;85.97;41.95;;;9.40;99.90;;;;;;4788258;29;20051;-85
2022/01/19 09:27:15;;;;;;;83.78;41.65;;;9.20;99.90;;;;;;4805064;29;20089;-85
2022/01/19 09:29:43;;;;;;;78.78;39.67;;;8.20;99.90;;;;;;4774610;29;20055;-85
2022/01/19 09:32:11;;;;;;;79.30;39.80;;;6.60;99.90;;;;;;4774505;29;20059;-85
2022/01/19 09:34:40;;;;;;;82.38;40.83;;;7.50;99.90;;;;;;4805943;29;20496;-85
2022/01/19 09:37:06;;;;;;;81.22;39.83;;;;;;;;;;4789961;29;20066;-85
2022/01/19 09:39:32;;;;;;;83.68;40.63;;;6.70;99.90;;;;;;4791965;29;20046;-86
2022/01/19 09:41:57;;;;;;;81.85;40.30;;;6.30;99.90;;;;;;4778102;30;20190;-84
2022/01/19 09:44:26;;;;;;;80.90;41.65;;;4.30;99.90;;;;;;4798918;29;20108;-85
2022/01/19 09:46:52;;;;;;;85.75;41.03;;;9.70;99.90;;;;;;4804787;29;20074;-85
2022/01/19 09:49:19;;;;;;;81.72;41.72;;;6.50;99.90;;;;;;4789463;29;20049;-84
2022/01/19 09:51:47;;;;;;;81.93;42.43;;;8.70;99.90;;;;;;4805379;29;20085;-84
2022/01/19 09:54:18;;;;;;;82.22;39.95;;;6.70;99.90;;;;;;4805426;29;20051;-83
2022/01/19 09:56:45;;;;;;;72.40;39.67;;;7.10;99.90;;;;;;4774425;29;20111;-85
2022/01/19 09:59:15;;;;;;;80.95;39.58;;;6.70;99.90;;;;;;4758758;29;20129;-84
2022/01/19 10:02:09;;;;;;;77.45;39.42;;;9.40;99.90;;;;;;4807718;29;20062;-86
2022/01/19 10:04:44;;;;;;;75.90;39.55;;;6.70;99.90;;;;;;4804582;29;20141;-81
2022/01/19 10:07:22;;;;;;;80.13;40.45;;;7.60;99.90;;;;;;4810651;29;20058;-84
2022/01/19 10:09:47;;;;;;;70.95;37.88;;;7.10;99.90;;;;;;4789082;29;20063;-83
2022/01/19 10:17:55;;;;;;;78.75;41.25;;;7.80;99.90;;;;;;4776561;29;20468;-84
2022/01/19 10:20:22;;;;;;;73.38;38.85;;;6.80;99.90;;;;;;4811316;29;20145;-83
2022/01/19 10:22:48;;;;;;;79.47;41.92;;;9.40;99.90;;;;;;4805135;29;20549;-85
2022/01/19 10:25:14;;;;;;;81.30;42.83;;;7.10;99.90;;;;;;4804324;29;20134;-84
2022/01/19 10:27:45;;;;;;;77.72;40.85;;;7.20;99.90;;;;;;4803459;29;20187;-84
2022/01/19 10:30:15;;;;;;;81.82;41.38;;;6.00;99.90;;;;;;4804534;29;20051;-84
2022/01/19 10:32:50;;;;;;;86.05;40.47;;;7.70;99.90;;;;;;4804511;29;20054;-85
2022/01/19 10:35:29;;;;;;;72.97;39.60;;;6.80;99.90;;;;;;4789177;29;20065;-86
2022/01/19 10:38:16;;;;;;;77.22;41.55;;;6.80;99.90;;;;;;4774705;29;20057;-87
2022/01/19 10:41:03;;;;;;;76.00;43.20;;;6.80;99.90;;;;;;4787867;29;20130;-87
2022/01/19 10:43:37;;;;;;;78.25;41.72;;;9.40;99.90;;;;;;4775946;29;20047;-86
2022/01/19 10:46:25;;;;;;;81.00;43.10;;;7.30;99.90;;;;;;4802706;29;20062;-86
2022/01/19 10:49:05;;;;;;;86.55;44.35;;;6.80;99.90;;;;;;4817501;29;20071;-87
2022/01/19 10:51:39;;;;;;;91.38;43.35;;;6.80;99.90;;;;;;4795148;29;20393;-87
2022/01/19 10:54:09;;;;;;;86.45;44.53;;;7.00;99.90;;;;;;4770175;30;20097;-85
2022/01/19 10:56:36;;;;;;;82.70;42.80;;;;;;;;;;4763753;29;20107;-86
2022/01/19 10:59:06;;;;;;;90.25;45.08;;;6.90;99.90;;;;;;4772564;29;20057;-89
2022/01/19 11:01:33;;;;;;;85.53;43.97;;;6.90;99.90;;;;;;4790019;29;20074;-85
2022/01/19 11:04:28;;;;;;;87.80;45.22;;;7.10;99.90;;;;;;4787252;29;20127;-86
2022/01/19 11:07:01;;;;;;;85.22;44.75;;;9.20;99.90;;;;;;4810073;29;20587;-85
2022/01/19 11:09:28;;;;;;;87.38;45.17;;;9.80;99.90;;;;;;4817856;29;20114;-86
2022/01/19 11:12:02;;;;;;;83.70;45.45;;;8.50;99.90;;;;;;4805920;29;20055;-85
2022/01/19 11:14:28;;;;;;;93.10;51.95;;;7.00;99.90;;;;;;4777072;29;20481;-85
2022/01/19 11:16:54;;;;;;;100.10;50.53;;;7.50;99.90;;;;;;4789022;29;20144;-85
2022/01/19 11:19:24;;;;;;;94.20;51.20;;;6.90;99.90;;;;;;4784369;30;20525;-85
2022/01/19 11:22:12;;;;;;;103.45;53.00;;;6.90;99.90;;;;;;4793189;29;20119;-85
2022/01/19 11:25:14;;;;;;;99.18;57.33;;;6.70;99.90;;;;;;4802775;29;20047;-86
2022/01/19 11:27:43;;;;;;;95.82;52.90;;;6.90;99.90;;;;;;4787390;30;20474;-85
2022/01/19 11:30:21;;;;;;;105.32;51.60;;;6.60;99.90;;;;;;4786040;29;20066;-86
2022/01/19 11:33:13;;;;;;;96.32;51.95;;;6.90;99.90;;;;;;4799714;29;20108;-85
2022/01/19 11:35:42;;;;;;;103.47;52.13;;;6.90;99.90;;;;;;4801741;29;20548;-85
2022/01/19 11:38:41;;;;;;;107.57;56.33;;;6.10;99.90;;;;;;4784652;29;20162;-85
2022/01/19 11:41:09;;;;;;;109.45;55.80;;;7.20;99.90;;;;;;4783555;30;20423;-85
2022/01/19 11:43:38;;;;;;;112.55;56.28;;;6.90;99.90;;;;;;4785697;30;20124;-87
2022/01/19 11:46:25;;;;;;;114.50;58.63;;;6.90;99.90;;;;;;4785567;29;20055;-91
2022/01/19 11:48:50;;;;;;;102.70;52.95;;;6.60;99.90;;;;;;4784017;30;20150;-86
2022/01/19 11:51:42;;;;;;;111.68;55.05;;;6.30;99.90;;;;;;4784181;30;20146;-84
2022/01/19 11:54:21;;;;;;;113.95;58.35;;;6.50;99.90;;;;;;4785391;29;20109;-86
2022/01/19 11:56:59;;;;;;;125.97;59.50;;;6.80;99.90;;;;;;4799348;29;20137;-85
2022/01/19 11:59:31;;;;;;;117.95;56.17;;;6.80;99.90;;;;;;4784794;29;20480;-84
2022/01/19 12:02:26;;;;;;;121.32;59.67;;;6.90;99.90;;;;;;4783289;29;20087;-85
2022/01/19 12:05:15;;;;;;;133.35;66.03;;;7.00;99.90;;;;;;4784769;30;20074;-85
2022/01/19 12:07:48;;;;;;;;;;;6.90;99.90;;;;;;4768968;30;20494;-86
2022/01/19 12:10:20;;;;;;;123.82;58.67;;;6.50;99.90;;;;;;4767638;30;20202;-85
2022/01/19 12:16:18;;;;;;;130.73;63.85;;;7.20;99.90;;;;;;4769297;30;20083;-87
2022/01/19 12:18:53;;;;;;;115.53;57.80;;;7.00;99.90;;;;;;4794293;29;20134;-85
2022/01/19 12:21:31;;;;;;;111.78;53.58;;;6.60;99.90;;;;;;4804931;29;20481;-84
2022/01/19 12:24:22;;;;;;;135.57;59.90;;;7.00;99.90;;;;;;4807017;29;20058;-84
2022/01/19 12:27:00;;;;;;;115.75;54.78;;;7.00;99.90;;;;;;4806900;29;20167;-85
2022/01/19 12:29:37;;;;;;;117.22;55.50;;;6.30;99.90;;;;;;4805902;29;20050;-85
2022/01/19 12:32:36;;;;;;;130.43;56.30;;;6.70;99.90;;;;;;4790823;29;20069;-85
2022/01/19 12:35:09;;;;;;;121.37;61.00;;;8.20;99.90;;;;;;4807150;29;20082;-85
2022/01/19 12:37:52;;;;;;;110.90;51.58;;;7.10;99.90;;;;;;4775931;29;20059;-85
2022/01/19 12:40:26;;;;;;;107.15;54.38;;;5.80;99.90;;;;;;4775088;29;20526;-84
2022/01/19 12:42:57;;;;;;;116.50;55.53;;;6.00;99.90;;;;;;4806624;29;20050;-85
2022/01/19 12:45:26;;;;;;;114.47;56.30;;;6.70;99.90;;;;;;4806182;29;20051;-88
2022/01/19 12:48:04;;;;;;;111.47;55.40;;;6.90;99.90;;;;;;4806710;29;20055;-85
2022/01/19 12:50:29;;;;;;;108.28;52.25;;;6.50;99.90;;;;;;4806098;29;20135;-85
2022/01/19 12:52:57;;;;;;;105.25;54.78;;;5.20;99.90;;;;;;4804826;29;20088;-85
2022/01/19 12:55:26;;;;;;;110.80;55.30;;;6.40;99.90;;;;;;4804190;29;20050;-88
2022/01/19 12:57:54;;;;;;;115.07;54.47;;;8.00;99.90;;;;;;4821932;29;20061;-84
2022/01/19 13:00:24;;;;;;;117.63;53.17;;;6.60;99.90;;;;;;4809400;29;20457;-84
2022/01/19 13:02:52;;;;;;;101.85;48.90;;;6.40;99.90;;;;;;4809866;29;20062;-84
2022/01/19 13:05:20;;;;;;;112.25;56.65;;;7.10;99.90;;;;;;4823287;29;20108;-85
2022/01/19 13:07:53;;;;;;;;;;;7.10;99.90;;;;;;4824521;29;20062;-84
2022/01/19 13:10:39;;;;;;;101.75;47.78;;;6.80;99.90;;;;;;4804655;29;20268;-85
2022/01/19 13:13:13;;;;;;;110.93;50.63;;;8.70;99.90;;;;;;4793628;29;20046;-84
2022/01/19 13:15:55;;;;;;;112.30;50.47;;;10.00;99.90;;;;;;4784781;30;20055;-86
2022/01/19 13:18:33;;;;;;;102.03;51.75;;;6.70;99.90;;;;;;4784020;29;20089;-85
2022/01/19 13:21:05;;;;;;;107.22;49.08;;;7.40;99.90;;;;;;4812303;29;20054;-85
2022/01/19 13:23:34;;;;;;;104.38;53.55;;;7.30;99.90;;;;;;4775533;29;20308;-85
2022/01/19 13:26:06;;;;;;;94.18;48.10;;;9.10;99.90;;;;;;4787680;29;20040;-84
2022/01/19 13:28:34;;;;;;;100.82;50.08;;;7.20;99.90;;;;;;4786748;29;20047;-83
2022/01/19 13:31:15;;;;;;;99.05;49.65;;;7.90;99.90;;;;;;4762315;29;20058;-85
2022/01/19 13:33:41;;;;;;;95.45;49.92;;;7.30;99.90;;;;;;4786611;29;20047;-85
2022/01/19 13:36:07;;;;;;;99.75;50.17;;;6.90;99.90;;;;;;4755711;30;20552;-84
2022/01/19 13:38:34;;;;;;;107.53;49.55;;;7.70;99.90;;;;;;4786847;29;20059;-83
2022/01/19 13:41:06;;;;;;;99.00;47.45;;;9.80;99.90;;;;;;4789964;29;20432;-83
2022/01/19 13:43:34;;;;;;;96.72;48.35;;;10.00;99.90;;;;;;4803402;29;20064;-85
2022/01/19 13:46:12;;;;;;;96.07;49.67;;;7.10;99.90;;;;;;4791084;29;20103;-84
2022/01/19 13:48:39;;;;;;;89.00;46.75;;;7.20;99.90;;;;;;4783236;29;20063;-83
2022/01/19 13:51:10;;;;;;;101.50;48.83;;;7.30;99.90;;;;;;4801100;29;20447;-83
2022/01/19 13:53:39;;;;;;;96.68;45.88;;;7.00;99.90;;;;;;4769654;29;20052;-84
2022/01/19 13:56:22;;;;;;;95.82;46.38;;;9.80;99.90;;;;;;4779720;29;20054;-84
2022/01/19 13:58:53;;;;;;;101.45;44.95;;;7.10;99.90;;;;;;4798884;29;20138;-85
2022/01/19 14:01:22;;;;;;;97.43;47.67;;;7.60;99.90;;;;;;4798908;29;20500;-84
2022/01/19 14:03:57;;;;;;;107.60;48.55;;;7.00;99.90;;;;;;4785684;29;20051;-83
2022/01/19 14:06:27;;;;;;;122.05;61.60;;;7.30;99.90;;;;;;4785025;30;20052;-82
2022/01/19 14:09:06;;;;;;;108.38;47.00;;;7.60;99.90;;;;;;4786969;29;20048;-80
2022/01/19 14:11:32;;;;;;;122.20;53.40;;;5.80;99.90;;;;;;4763218;29;20051;-81
2022/01/19 14:14:03;;;;;;;125.50;52.05;;;7.20;99.90;;;;;;4778223;29;20090;-81
2022/01/19 14:16:35;;;;;;;120.65;52.47;;;7.10;99.90;;;;;;4786676;29;20040;-82
2022/01/19 14:19:22;;;;;;;130.52;60.15;;;7.10;99.90;;;;;;4798393;29;20059;-82
2022/01/19 14:22:04;;;;;;;127.88;58.42;;;7.90;99.90;;;;;;4804675;29;20119;-80
2022/01/19 14:24:53;;;;;;;148.82;69.45;;;6.30;99.90;;;;;;4791398;29;20051;-82
2022/01/19 14:27:25;;;;;;;150.70;54.95;;;8.20;99.90;;;;;;4754213;30;20059;-80
2022/01/19 14:30:06;;;;;;;150.45;57.85;;;7.40;99.90;;;;;;4786733;30;20051;-82